sensor_id;sensor_type;location;lat;lon;timestamp;P1;durP1;ratioP1;P2;durP2;ratioP2
64716;SDS011;51146;50.274;19.000;2022-07-25T00:02:05;5.13;;;3.92;;
64716;SDS011;51146;50.274;19.000;2022-07-25T00:04:33;5.53;;;3.80;;
64716;SDS011;51146;50.274;19.000;2022-07-25T00:07:01;6.35;;;3.83;;
64716;SDS011;51146;50.274;19.000;2022-07-25T00:09:27;5.88;;;4.22;;
64716;SDS011;51146;50.274;19.000;2022-07-25T00:11:54;5.72;;;4.40;;
64716;SDS011;51146;50.274;19.000;2022-07-25T00:14:21;7.03;;;4.32;;
64716;SDS011;51146;50.274;19.000;2022-07-25T00:16:47;6.30;;;4.03;;
64716;SDS011;51146;50.274;19.000;2022-07-25T00:19:14;6.15;;;4.05;;
64716;SDS011;51146;50.274;19.000;2022-07-25T00:21:41;7.60;;;4.32;;
64716;SDS011;51146;50.274;19.000;2022-07-25T00:24:08;6.32;;;4.43;;
64716;SDS011;51146;50.274;19.000;2022-07-25T00:26:35;5.72;;;4.05;;
64716;SDS011;51146;50.274;19.000;2022-07-25T00:29:05;6.97;;;4.43;;
64716;SDS011;51146;50.274;19.000;2022-07-25T00:31:32;6.00;;;4.40;;
64716;SDS011;51146;50.274;19.000;2022-07-25T00:33:59;6.57;;;5.15;;
64716;SDS011;51146;50.274;19.000;2022-07-25T00:36:26;5.68;;;4.65;;
64716;SDS011;51146;50.274;19.000;2022-07-25T00:38:53;5.60;;;4.82;;
64716;SDS011;51146;50.274;19.000;2022-07-25T00:41:20;6.65;;;4.95;;
64716;SDS011;51146;50.274;19.000;2022-07-25T00:43:47;6.88;;;4.38;;
64716;SDS011;51146;50.274;19.000;2022-07-25T00:46:15;8.23;;;5.10;;
64716;SDS011;51146;50.274;19.000;2022-07-25T00:48:45;7.25;;;4.72;;
64716;SDS011;51146;50.274;19.000;2022-07-25T00:51:13;6.20;;;5.03;;
64716;SDS011;51146;50.274;19.000;2022-07-25T00:53:43;7.07;;;5.00;;
64716;SDS011;51146;50.274;19.000;2022-07-25T00:56:10;6.80;;;4.60;;
64716;SDS011;51146;50.274;19.000;2022-07-25T00:58:37;6.03;;;4.78;;
64716;SDS011;51146;50.274;19.000;2022-07-25T01:01:04;6.90;;;4.65;;
64716;SDS011;51146;50.274;19.000;2022-07-25T01:03:31;8.07;;;5.20;;
64716;SDS011;51146;50.274;19.000;2022-07-25T01:05:58;10.50;;;5.10;;
64716;SDS011;51146;50.274;19.000;2022-07-25T01:08:24;7.93;;;5.28;;
64716;SDS011;51146;50.274;19.000;2022-07-25T01:10:52;6.82;;;5.35;;
64716;SDS011;51146;50.274;19.000;2022-07-25T01:13:19;5.95;;;5.20;;
64716;SDS011;51146;50.274;19.000;2022-07-25T01:15:46;8.18;;;5.35;;
64716;SDS011;51146;50.274;19.000;2022-07-25T01:18:13;7.30;;;5.18;;
64716;SDS011;51146;50.274;19.000;2022-07-25T01:20:39;10.77;;;5.35;;
64716;SDS011;51146;50.274;19.000;2022-07-25T01:23:06;6.20;;;4.90;;
64716;SDS011;51146;50.274;19.000;2022-07-25T01:25:34;5.45;;;4.70;;
64716;SDS011;51146;50.274;19.000;2022-07-25T01:28:00;9.27;;;5.32;;
64716;SDS011;51146;50.274;19.000;2022-07-25T01:30:27;7.50;;;5.50;;
64716;SDS011;51146;50.274;19.000;2022-07-25T01:32:54;9.15;;;5.90;;
64716;SDS011;51146;50.274;19.000;2022-07-25T01:35:20;7.53;;;5.70;;
64716;SDS011;51146;50.274;19.000;2022-07-25T01:37:47;10.40;;;5.40;;
64716;SDS011;51146;50.274;19.000;2022-07-25T01:40:14;8.00;;;4.88;;
64716;SDS011;51146;50.274;19.000;2022-07-25T01:42:41;10.23;;;6.35;;
64716;SDS011;51146;50.274;19.000;2022-07-25T01:45:09;7.35;;;5.18;;
64716;SDS011;51146;50.274;19.000;2022-07-25T01:47:37;9.98;;;7.45;;
64716;SDS011;51146;50.274;19.000;2022-07-25T01:50:03;11.82;;;6.43;;
64716;SDS011;51146;50.274;19.000;2022-07-25T01:52:31;7.65;;;5.57;;
64716;SDS011;51146;50.274;19.000;2022-07-25T01:54:57;8.70;;;5.75;;
64716;SDS011;51146;50.274;19.000;2022-07-25T01:57:24;8.57;;;5.32;;
64716;SDS011;51146;50.274;19.000;2022-07-25T01:59:56;9.18;;;5.43;;
64716;SDS011;51146;50.274;19.000;2022-07-25T02:02:23;8.95;;;5.35;;
64716;SDS011;51146;50.274;19.000;2022-07-25T02:04:51;11.07;;;5.43;;
64716;SDS011;51146;50.274;19.000;2022-07-25T02:07:18;8.88;;;5.82;;
64716;SDS011;51146;50.274;19.000;2022-07-25T02:09:45;7.15;;;6.00;;
64716;SDS011;51146;50.274;19.000;2022-07-25T02:12:11;8.63;;;5.72;;
64716;SDS011;51146;50.274;19.000;2022-07-25T02:14:39;10.55;;;6.32;;
64716;SDS011;51146;50.274;19.000;2022-07-25T02:17:06;7.88;;;6.10;;
64716;SDS011;51146;50.274;19.000;2022-07-25T02:19:34;7.25;;;5.70;;
64716;SDS011;51146;50.274;19.000;2022-07-25T02:22:03;10.80;;;6.00;;
64716;SDS011;51146;50.274;19.000;2022-07-25T02:24:30;9.82;;;5.65;;
64716;SDS011;51146;50.274;19.000;2022-07-25T02:26:57;11.10;;;6.20;;
64716;SDS011;51146;50.274;19.000;2022-07-25T02:29:24;9.18;;;6.22;;
64716;SDS011;51146;50.274;19.000;2022-07-25T02:31:53;11.57;;;6.20;;
64716;SDS011;51146;50.274;19.000;2022-07-25T02:34:20;9.80;;;6.13;;
64716;SDS011;51146;50.274;19.000;2022-07-25T02:36:47;10.23;;;6.13;;
64716;SDS011;51146;50.274;19.000;2022-07-25T02:39:15;9.77;;;6.43;;
64716;SDS011;51146;50.274;19.000;2022-07-25T02:41:42;9.95;;;5.93;;
64716;SDS011;51146;50.274;19.000;2022-07-25T02:44:10;10.07;;;6.43;;
64716;SDS011;51146;50.274;19.000;2022-07-25T02:46:37;10.50;;;7.30;;
64716;SDS011;51146;50.274;19.000;2022-07-25T02:49:04;8.80;;;6.40;;
64716;SDS011;51146;50.274;19.000;2022-07-25T02:51:31;10.57;;;6.57;;
64716;SDS011;51146;50.274;19.000;2022-07-25T02:53:57;9.82;;;6.22;;
64716;SDS011;51146;50.274;19.000;2022-07-25T02:56:25;8.82;;;7.30;;
64716;SDS011;51146;50.274;19.000;2022-07-25T02:58:55;9.90;;;6.65;;
64716;SDS011;51146;50.274;19.000;2022-07-25T03:01:22;10.85;;;7.93;;
64716;SDS011;51146;50.274;19.000;2022-07-25T03:03:49;10.48;;;6.57;;
64716;SDS011;51146;50.274;19.000;2022-07-25T03:06:17;10.80;;;6.22;;
64716;SDS011;51146;50.274;19.000;2022-07-25T03:08:43;9.68;;;7.22;;
64716;SDS011;51146;50.274;19.000;2022-07-25T03:11:10;10.15;;;6.30;;
64716;SDS011;51146;50.274;19.000;2022-07-25T03:13:38;11.45;;;7.35;;
64716;SDS011;51146;50.274;19.000;2022-07-25T03:16:14;11.75;;;7.43;;
64716;SDS011;51146;50.274;19.000;2022-07-25T03:18:41;8.82;;;6.97;;
64716;SDS011;51146;50.274;19.000;2022-07-25T03:21:07;9.57;;;6.65;;
64716;SDS011;51146;50.274;19.000;2022-07-25T03:23:34;9.10;;;6.75;;
64716;SDS011;51146;50.274;19.000;2022-07-25T03:26:01;10.95;;;6.70;;
64716;SDS011;51146;50.274;19.000;2022-07-25T03:28:27;10.40;;;6.97;;
64716;SDS011;51146;50.274;19.000;2022-07-25T03:30:54;12.50;;;7.45;;
64716;SDS011;51146;50.274;19.000;2022-07-25T03:33:22;14.18;;;7.70;;
64716;SDS011;51146;50.274;19.000;2022-07-25T03:35:49;11.43;;;7.25;;
64716;SDS011;51146;50.274;19.000;2022-07-25T03:38:16;14.35;;;7.75;;
64716;SDS011;51146;50.274;19.000;2022-07-25T03:40:42;9.65;;;7.15;;
64716;SDS011;51146;50.274;19.000;2022-07-25T03:43:09;12.15;;;7.65;;
64716;SDS011;51146;50.274;19.000;2022-07-25T03:45:36;12.20;;;7.28;;
64716;SDS011;51146;50.274;19.000;2022-07-25T03:48:03;9.95;;;7.32;;
64716;SDS011;51146;50.274;19.000;2022-07-25T03:50:30;15.95;;;7.93;;
64716;SDS011;51146;50.274;19.000;2022-07-25T03:52:56;9.93;;;7.20;;
64716;SDS011;51146;50.274;19.000;2022-07-25T03:55:23;12.63;;;6.82;;
64716;SDS011;51146;50.274;19.000;2022-07-25T03:57:50;10.85;;;6.90;;
64716;SDS011;51146;50.274;19.000;2022-07-25T04:00:19;9.95;;;6.40;;
64716;SDS011;51146;50.274;19.000;2022-07-25T04:02:46;12.70;;;7.30;;
64716;SDS011;51146;50.274;19.000;2022-07-25T04:05:13;13.00;;;6.57;;
64716;SDS011;51146;50.274;19.000;2022-07-25T04:07:39;10.10;;;5.70;;
64716;SDS011;51146;50.274;19.000;2022-07-25T04:10:06;8.75;;;5.50;;
64716;SDS011;51146;50.274;19.000;2022-07-25T04:12:34;15.00;;;6.55;;
64716;SDS011;51146;50.274;19.000;2022-07-25T04:15:01;16.33;;;10.77;;
64716;SDS011;51146;50.274;19.000;2022-07-25T04:17:29;9.13;;;6.45;;
64716;SDS011;51146;50.274;19.000;2022-07-25T04:19:55;11.70;;;6.35;;
64716;SDS011;51146;50.274;19.000;2022-07-25T04:22:22;11.27;;;6.35;;
64716;SDS011;51146;50.274;19.000;2022-07-25T04:24:49;11.07;;;6.55;;
64716;SDS011;51146;50.274;19.000;2022-07-25T04:27:16;15.27;;;6.38;;
64716;SDS011;51146;50.274;19.000;2022-07-25T04:29:42;11.02;;;6.95;;
64716;SDS011;51146;50.274;19.000;2022-07-25T04:32:09;14.40;;;6.70;;
64716;SDS011;51146;50.274;19.000;2022-07-25T04:34:36;9.55;;;6.60;;
64716;SDS011;51146;50.274;19.000;2022-07-25T04:37:03;13.75;;;6.38;;
64716;SDS011;51146;50.274;19.000;2022-07-25T04:39:30;12.38;;;6.60;;
64716;SDS011;51146;50.274;19.000;2022-07-25T04:41:58;8.40;;;5.57;;
64716;SDS011;51146;50.274;19.000;2022-07-25T04:44:24;15.00;;;6.50;;
64716;SDS011;51146;50.274;19.000;2022-07-25T04:46:51;20.50;;;9.25;;
64716;SDS011;51146;50.274;19.000;2022-07-25T04:49:18;11.35;;;6.07;;
64716;SDS011;51146;50.274;19.000;2022-07-25T04:51:45;11.57;;;6.43;;
64716;SDS011;51146;50.274;19.000;2022-07-25T04:54:11;10.95;;;6.38;;
64716;SDS011;51146;50.274;19.000;2022-07-25T04:56:39;13.98;;;5.70;;
64716;SDS011;51146;50.274;19.000;2022-07-25T04:59:06;12.85;;;6.45;;
64716;SDS011;51146;50.274;19.000;2022-07-25T05:01:33;11.18;;;6.43;;
64716;SDS011;51146;50.274;19.000;2022-07-25T05:04:00;13.63;;;5.78;;
64716;SDS011;51146;50.274;19.000;2022-07-25T05:06:28;10.70;;;6.40;;
64716;SDS011;51146;50.274;19.000;2022-07-25T05:08:55;8.98;;;6.45;;
64716;SDS011;51146;50.274;19.000;2022-07-25T05:11:22;12.82;;;5.57;;
64716;SDS011;51146;50.274;19.000;2022-07-25T05:13:49;8.23;;;5.60;;
64716;SDS011;51146;50.274;19.000;2022-07-25T05:16:16;11.30;;;5.18;;
64716;SDS011;51146;50.274;19.000;2022-07-25T05:18:42;7.93;;;5.50;;
64716;SDS011;51146;50.274;19.000;2022-07-25T05:21:12;10.40;;;5.22;;
64716;SDS011;51146;50.274;19.000;2022-07-25T05:23:39;9.95;;;5.95;;
64716;SDS011;51146;50.274;19.000;2022-07-25T05:26:06;12.07;;;5.80;;
64716;SDS011;51146;50.274;19.000;2022-07-25T05:28:33;9.65;;;5.20;;
64716;SDS011;51146;50.274;19.000;2022-07-25T05:31:00;8.70;;;5.93;;
64716;SDS011;51146;50.274;19.000;2022-07-25T05:33:26;10.02;;;5.40;;
64716;SDS011;51146;50.274;19.000;2022-07-25T05:35:53;7.30;;;5.05;;
64716;SDS011;51146;50.274;19.000;2022-07-25T05:38:20;9.27;;;5.35;;
64716;SDS011;51146;50.274;19.000;2022-07-25T05:40:47;7.13;;;5.05;;
64716;SDS011;51146;50.274;19.000;2022-07-25T05:43:14;7.38;;;4.75;;
64716;SDS011;51146;50.274;19.000;2022-07-25T05:45:41;14.18;;;6.82;;
64716;SDS011;51146;50.274;19.000;2022-07-25T05:48:08;5.95;;;4.97;;
64716;SDS011;51146;50.274;19.000;2022-07-25T05:50:36;10.27;;;5.95;;
64716;SDS011;51146;50.274;19.000;2022-07-25T05:53:02;9.88;;;4.88;;
64716;SDS011;51146;50.274;19.000;2022-07-25T05:55:29;12.18;;;5.38;;
64716;SDS011;51146;50.274;19.000;2022-07-25T05:57:56;8.07;;;5.07;;
64716;SDS011;51146;50.274;19.000;2022-07-25T06:00:23;6.20;;;4.88;;
64716;SDS011;51146;50.274;19.000;2022-07-25T06:02:50;8.68;;;4.93;;
64716;SDS011;51146;50.274;19.000;2022-07-25T06:05:19;10.30;;;6.93;;
64716;SDS011;51146;50.274;19.000;2022-07-25T06:07:46;8.80;;;5.40;;
64716;SDS011;51146;50.274;19.000;2022-07-25T06:10:12;8.30;;;4.75;;
64716;SDS011;51146;50.274;19.000;2022-07-25T06:12:39;8.82;;;4.95;;
64716;SDS011;51146;50.274;19.000;2022-07-25T06:15:06;7.47;;;5.15;;
64716;SDS011;51146;50.274;19.000;2022-07-25T06:17:47;10.30;;;4.97;;
64716;SDS011;51146;50.274;19.000;2022-07-25T06:20:14;8.18;;;4.72;;
64716;SDS011;51146;50.274;19.000;2022-07-25T06:22:41;9.40;;;4.93;;
64716;SDS011;51146;50.274;19.000;2022-07-25T06:25:08;9.85;;;4.57;;
64716;SDS011;51146;50.274;19.000;2022-07-25T06:27:36;7.10;;;4.55;;
64716;SDS011;51146;50.274;19.000;2022-07-25T06:30:03;6.43;;;4.63;;
64716;SDS011;51146;50.274;19.000;2022-07-25T06:32:45;10.07;;;5.10;;
64716;SDS011;51146;50.274;19.000;2022-07-25T06:35:12;8.02;;;4.60;;
64716;SDS011;51146;50.274;19.000;2022-07-25T06:37:39;9.32;;;5.05;;
64716;SDS011;51146;50.274;19.000;2022-07-25T06:40:06;12.05;;;4.90;;
64716;SDS011;51146;50.274;19.000;2022-07-25T06:42:40;7.32;;;4.20;;
64716;SDS011;51146;50.274;19.000;2022-07-25T06:45:09;8.68;;;5.00;;
64716;SDS011;51146;50.274;19.000;2022-07-25T06:47:37;8.15;;;4.47;;
64716;SDS011;51146;50.274;19.000;2022-07-25T06:50:08;9.50;;;4.45;;
64716;SDS011;51146;50.274;19.000;2022-07-25T06:52:37;6.88;;;4.30;;
64716;SDS011;51146;50.274;19.000;2022-07-25T06:55:04;6.68;;;4.30;;
64716;SDS011;51146;50.274;19.000;2022-07-25T06:57:33;8.43;;;4.67;;
64716;SDS011;51146;50.274;19.000;2022-07-25T06:59:59;10.77;;;5.32;;
64716;SDS011;51146;50.274;19.000;2022-07-25T07:02:27;11.77;;;4.93;;
64716;SDS011;51146;50.274;19.000;2022-07-25T07:04:53;5.28;;;3.80;;
64716;SDS011;51146;50.274;19.000;2022-07-25T07:07:20;8.63;;;4.93;;
64716;SDS011;51146;50.274;19.000;2022-07-25T07:09:47;6.07;;;4.35;;
64716;SDS011;51146;50.274;19.000;2022-07-25T07:12:14;8.23;;;4.00;;
64716;SDS011;51146;50.274;19.000;2022-07-25T07:14:40;7.30;;;4.60;;
64716;SDS011;51146;50.274;19.000;2022-07-25T07:17:09;8.18;;;4.18;;
64716;SDS011;51146;50.274;19.000;2022-07-25T07:19:37;6.80;;;3.60;;
64716;SDS011;51146;50.274;19.000;2022-07-25T07:22:10;6.05;;;4.10;;
64716;SDS011;51146;50.274;19.000;2022-07-25T07:24:39;6.93;;;4.00;;
64716;SDS011;51146;50.274;19.000;2022-07-25T07:27:13;4.32;;;3.38;;
64716;SDS011;51146;50.274;19.000;2022-07-25T07:29:40;6.13;;;3.30;;
64716;SDS011;51146;50.274;19.000;2022-07-25T07:32:07;3.95;;;3.42;;
64716;SDS011;51146;50.274;19.000;2022-07-25T07:34:34;8.55;;;3.75;;
64716;SDS011;51146;50.274;19.000;2022-07-25T07:37:01;4.40;;;2.95;;
64716;SDS011;51146;50.274;19.000;2022-07-25T07:39:28;5.13;;;2.60;;
64716;SDS011;51146;50.274;19.000;2022-07-25T07:41:55;5.85;;;2.72;;
64716;SDS011;51146;50.274;19.000;2022-07-25T07:44:22;5.03;;;3.17;;
64716;SDS011;51146;50.274;19.000;2022-07-25T07:46:49;4.85;;;3.28;;
64716;SDS011;51146;50.274;19.000;2022-07-25T07:49:15;5.07;;;3.00;;
64716;SDS011;51146;50.274;19.000;2022-07-25T07:51:42;4.43;;;2.45;;
64716;SDS011;51146;50.274;19.000;2022-07-25T07:54:09;3.30;;;2.60;;
64716;SDS011;51146;50.274;19.000;2022-07-25T07:56:54;3.33;;;2.90;;
64716;SDS011;51146;50.274;19.000;2022-07-25T07:59:21;4.65;;;2.70;;
64716;SDS011;51146;50.274;19.000;2022-07-25T08:01:48;4.35;;;2.58;;
64716;SDS011;51146;50.274;19.000;2022-07-25T08:04:14;4.15;;;2.72;;
64716;SDS011;51146;50.274;19.000;2022-07-25T08:06:41;3.80;;;2.38;;
64716;SDS011;51146;50.274;19.000;2022-07-25T08:09:08;6.57;;;2.85;;
64716;SDS011;51146;50.274;19.000;2022-07-25T08:11:35;5.00;;;2.80;;
64716;SDS011;51146;50.274;19.000;2022-07-25T08:14:02;3.15;;;2.45;;
64716;SDS011;51146;50.274;19.000;2022-07-25T08:16:31;7.13;;;3.17;;
64716;SDS011;51146;50.274;19.000;2022-07-25T08:18:58;3.95;;;2.67;;
64716;SDS011;51146;50.274;19.000;2022-07-25T08:21:25;3.70;;;2.60;;
64716;SDS011;51146;50.274;19.000;2022-07-25T08:23:53;6.35;;;2.92;;
64716;SDS011;51146;50.274;19.000;2022-07-25T08:26:20;4.70;;;3.10;;
64716;SDS011;51146;50.274;19.000;2022-07-25T08:28:46;8.93;;;3.05;;
64716;SDS011;51146;50.274;19.000;2022-07-25T08:31:25;3.97;;;2.58;;
64716;SDS011;51146;50.274;19.000;2022-07-25T08:33:52;2.50;;;2.15;;
64716;SDS011;51146;50.274;19.000;2022-07-25T08:36:20;7.35;;;3.13;;
64716;SDS011;51146;50.274;19.000;2022-07-25T08:38:46;3.38;;;2.28;;
64716;SDS011;51146;50.274;19.000;2022-07-25T08:41:13;3.83;;;2.38;;
64716;SDS011;51146;50.274;19.000;2022-07-25T08:43:40;14.18;;;3.30;;
64716;SDS011;51146;50.274;19.000;2022-07-25T08:46:08;4.37;;;2.47;;
64716;SDS011;51146;50.274;19.000;2022-07-25T08:48:36;2.65;;;2.05;;
64716;SDS011;51146;50.274;19.000;2022-07-25T08:51:04;3.85;;;2.20;;
64716;SDS011;51146;50.274;19.000;2022-07-25T08:53:32;2.85;;;2.30;;
64716;SDS011;51146;50.274;19.000;2022-07-25T08:56:00;3.53;;;2.30;;
64716;SDS011;51146;50.274;19.000;2022-07-25T08:58:38;2.35;;;2.20;;
64716;SDS011;51146;50.274;19.000;2022-07-25T09:01:05;4.75;;;2.45;;
64716;SDS011;51146;50.274;19.000;2022-07-25T09:03:32;3.00;;;2.05;;
64716;SDS011;51146;50.274;19.000;2022-07-25T09:05:59;2.88;;;2.20;;
64716;SDS011;51146;50.274;19.000;2022-07-25T09:08:26;3.60;;;2.15;;
64716;SDS011;51146;50.274;19.000;2022-07-25T09:10:52;3.75;;;2.35;;
64716;SDS011;51146;50.274;19.000;2022-07-25T09:13:20;3.80;;;2.20;;
64716;SDS011;51146;50.274;19.000;2022-07-25T09:15:51;23.83;;;3.40;;
64716;SDS011;51146;50.274;19.000;2022-07-25T09:18:23;5.10;;;2.53;;
64716;SDS011;51146;50.274;19.000;2022-07-25T09:20:53;3.08;;;2.22;;
64716;SDS011;51146;50.274;19.000;2022-07-25T09:23:30;2.53;;;2.28;;
64716;SDS011;51146;50.274;19.000;2022-07-25T09:26:05;2.75;;;2.15;;
64716;SDS011;51146;50.274;19.000;2022-07-25T09:31:11;3.38;;;2.22;;
64716;SDS011;51146;50.274;19.000;2022-07-25T09:33:46;4.47;;;3.30;;
64716;SDS011;51146;50.274;19.000;2022-07-25T09:36:14;5.43;;;2.40;;
64716;SDS011;51146;50.274;19.000;2022-07-25T09:38:57;3.65;;;2.60;;
64716;SDS011;51146;50.274;19.000;2022-07-25T09:41:36;2.70;;;2.10;;
64716;SDS011;51146;50.274;19.000;2022-07-25T09:44:16;2.85;;;2.22;;
64716;SDS011;51146;50.274;19.000;2022-07-25T09:46:44;3.92;;;2.10;;
64716;SDS011;51146;50.274;19.000;2022-07-25T09:49:10;5.20;;;2.10;;
64716;SDS011;51146;50.274;19.000;2022-07-25T09:51:40;4.03;;;2.22;;
64716;SDS011;51146;50.274;19.000;2022-07-25T09:56:35;5.22;;;2.50;;
64716;SDS011;51146;50.274;19.000;2022-07-25T09:59:03;5.47;;;2.08;;
64716;SDS011;51146;50.274;19.000;2022-07-25T10:01:34;8.52;;;2.20;;
64716;SDS011;51146;50.274;19.000;2022-07-25T10:09:44;2.70;;;1.90;;
64716;SDS011;51146;50.274;19.000;2022-07-25T10:12:13;2.60;;;2.25;;
64716;SDS011;51146;50.274;19.000;2022-07-25T10:15:01;2.47;;;2.00;;
64716;SDS011;51146;50.274;19.000;2022-07-25T10:17:39;2.30;;;1.90;;
64716;SDS011;51146;50.274;19.000;2022-07-25T10:20:07;1.95;;;1.65;;
64716;SDS011;51146;50.274;19.000;2022-07-25T10:25:21;2.35;;;2.15;;
64716;SDS011;51146;50.274;19.000;2022-07-25T10:27:49;2.05;;;1.80;;
64716;SDS011;51146;50.274;19.000;2022-07-25T10:30:24;2.50;;;1.85;;
64716;SDS011;51146;50.274;19.000;2022-07-25T10:35:51;3.25;;;1.90;;
64716;SDS011;51146;50.274;19.000;2022-07-25T10:38:27;3.25;;;1.77;;
64716;SDS011;51146;50.274;19.000;2022-07-25T10:40:53;2.08;;;1.90;;
64716;SDS011;51146;50.274;19.000;2022-07-25T10:43:21;3.75;;;2.17;;
64716;SDS011;51146;50.274;19.000;2022-07-25T10:45:53;3.22;;;2.00;;
64716;SDS011;51146;50.274;19.000;2022-07-25T10:48:23;2.25;;;2.05;;
64716;SDS011;51146;50.274;19.000;2022-07-25T10:56:12;4.47;;;2.10;;
64716;SDS011;51146;50.274;19.000;2022-07-25T11:01:12;3.13;;;2.00;;
64716;SDS011;51146;50.274;19.000;2022-07-25T11:03:41;2.35;;;2.15;;
64716;SDS011;51146;50.274;19.000;2022-07-25T11:06:11;2.33;;;1.73;;
64716;SDS011;51146;50.274;19.000;2022-07-25T11:08:41;2.33;;;2.20;;
64716;SDS011;51146;50.274;19.000;2022-07-25T11:11:09;2.00;;;1.85;;
64716;SDS011;51146;50.274;19.000;2022-07-25T11:13:40;3.50;;;1.70;;
64716;SDS011;51146;50.274;19.000;2022-07-25T11:16:08;2.42;;;2.08;;
64716;SDS011;51146;50.274;19.000;2022-07-25T11:18:38;2.42;;;1.80;;
64716;SDS011;51146;50.274;19.000;2022-07-25T11:21:06;3.08;;;2.05;;
64716;SDS011;51146;50.274;19.000;2022-07-25T11:23:34;2.08;;;1.88;;
64716;SDS011;51146;50.274;19.000;2022-07-25T11:28:36;5.63;;;2.40;;
64716;SDS011;51146;50.274;19.000;2022-07-25T11:31:10;3.33;;;2.13;;
64716;SDS011;51146;50.274;19.000;2022-07-25T11:33:39;3.97;;;1.95;;
64716;SDS011;51146;50.274;19.000;2022-07-25T11:36:09;3.10;;;2.80;;
64716;SDS011;51146;50.274;19.000;2022-07-25T11:38:37;3.17;;;2.28;;
64716;SDS011;51146;50.274;19.000;2022-07-25T11:41:05;2.83;;;2.40;;
64716;SDS011;51146;50.274;19.000;2022-07-25T11:43:33;3.72;;;1.90;;
64716;SDS011;51146;50.274;19.000;2022-07-25T11:46:03;2.87;;;2.67;;
64716;SDS011;51146;50.274;19.000;2022-07-25T11:48:36;2.65;;;1.70;;
64716;SDS011;51146;50.274;19.000;2022-07-25T11:51:09;2.00;;;1.80;;
64716;SDS011;51146;50.274;19.000;2022-07-25T11:53:44;3.00;;;2.00;;
64716;SDS011;51146;50.274;19.000;2022-07-25T11:56:19;3.35;;;1.92;;
64716;SDS011;51146;50.274;19.000;2022-07-25T11:59:07;2.95;;;1.80;;
64716;SDS011;51146;50.274;19.000;2022-07-25T12:01:36;2.83;;;2.28;;
64716;SDS011;51146;50.274;19.000;2022-07-25T12:04:11;1.77;;;1.67;;
64716;SDS011;51146;50.274;19.000;2022-07-25T12:06:47;3.40;;;1.88;;
64716;SDS011;51146;50.274;19.000;2022-07-25T12:09:20;1.90;;;1.80;;
64716;SDS011;51146;50.274;19.000;2022-07-25T12:11:48;3.80;;;1.85;;
64716;SDS011;51146;50.274;19.000;2022-07-25T12:14:15;1.92;;;1.83;;
64716;SDS011;51146;50.274;19.000;2022-07-25T12:19:16;2.95;;;1.77;;
64716;SDS011;51146;50.274;19.000;2022-07-25T12:21:44;4.78;;;2.78;;
64716;SDS011;51146;50.274;19.000;2022-07-25T12:24:11;3.92;;;1.80;;
64716;SDS011;51146;50.274;19.000;2022-07-25T12:26:38;3.25;;;2.42;;
64716;SDS011;51146;50.274;19.000;2022-07-25T12:29:04;2.60;;;1.93;;
64716;SDS011;51146;50.274;19.000;2022-07-25T12:33:58;3.50;;;3.20;;
64716;SDS011;51146;50.274;19.000;2022-07-25T12:36:25;2.30;;;2.10;;
64716;SDS011;51146;50.274;19.000;2022-07-25T12:38:52;4.72;;;2.10;;
64716;SDS011;51146;50.274;19.000;2022-07-25T12:43:48;2.38;;;1.67;;
64716;SDS011;51146;50.274;19.000;2022-07-25T12:46:15;1.83;;;1.70;;
64716;SDS011;51146;50.274;19.000;2022-07-25T12:48:43;3.45;;;2.95;;
64716;SDS011;51146;50.274;19.000;2022-07-25T12:51:10;3.92;;;1.75;;
64716;SDS011;51146;50.274;19.000;2022-07-25T12:53:37;3.42;;;2.05;;
64716;SDS011;51146;50.274;19.000;2022-07-25T12:56:08;1.90;;;1.80;;
64716;SDS011;51146;50.274;19.000;2022-07-25T12:58:35;3.35;;;2.00;;
64716;SDS011;51146;50.274;19.000;2022-07-25T13:01:02;2.15;;;2.00;;
64716;SDS011;51146;50.274;19.000;2022-07-25T13:03:31;2.55;;;2.25;;
64716;SDS011;51146;50.274;19.000;2022-07-25T13:05:58;1.92;;;1.83;;
64716;SDS011;51146;50.274;19.000;2022-07-25T13:08:24;2.77;;;1.60;;
64716;SDS011;51146;50.274;19.000;2022-07-25T13:10:51;2.80;;;2.60;;
64716;SDS011;51146;50.274;19.000;2022-07-25T13:13:18;2.10;;;1.70;;
64716;SDS011;51146;50.274;19.000;2022-07-25T13:15:44;2.80;;;1.80;;
64716;SDS011;51146;50.274;19.000;2022-07-25T13:18:11;2.80;;;1.67;;
64716;SDS011;51146;50.274;19.000;2022-07-25T13:20:38;2.67;;;1.60;;
64716;SDS011;51146;50.274;19.000;2022-07-25T13:23:05;2.53;;;1.60;;
64716;SDS011;51146;50.274;19.000;2022-07-25T13:25:32;2.20;;;2.00;;
64716;SDS011;51146;50.274;19.000;2022-07-25T13:30:27;2.03;;;1.70;;
64716;SDS011;51146;50.274;19.000;2022-07-25T13:32:54;2.17;;;2.00;;
64716;SDS011;51146;50.274;19.000;2022-07-25T13:35:21;1.85;;;1.70;;
64716;SDS011;51146;50.274;19.000;2022-07-25T13:37:58;3.80;;;1.67;;
64716;SDS011;51146;50.274;19.000;2022-07-25T13:42:52;2.22;;;2.00;;
64716;SDS011;51146;50.274;19.000;2022-07-25T13:45:18;1.60;;;1.50;;
64716;SDS011;51146;50.274;19.000;2022-07-25T13:47:46;2.13;;;1.90;;
64716;SDS011;51146;50.274;19.000;2022-07-25T13:50:31;4.38;;;1.70;;
64716;SDS011;51146;50.274;19.000;2022-07-25T13:52:59;3.72;;;1.73;;
64716;SDS011;51146;50.274;19.000;2022-07-25T13:55:26;1.83;;;1.50;;
64716;SDS011;51146;50.274;19.000;2022-07-25T14:00:21;2.72;;;1.85;;
64716;SDS011;51146;50.274;19.000;2022-07-25T14:02:47;1.77;;;1.67;;
64716;SDS011;51146;50.274;19.000;2022-07-25T14:05:14;1.58;;;1.48;;
64716;SDS011;51146;50.274;19.000;2022-07-25T14:07:41;5.20;;;1.87;;
64716;SDS011;51146;50.274;19.000;2022-07-25T14:10:09;2.57;;;1.90;;
64716;SDS011;51146;50.274;19.000;2022-07-25T14:12:36;3.13;;;1.75;;
64716;SDS011;51146;50.274;19.000;2022-07-25T14:15:05;2.25;;;1.60;;
64716;SDS011;51146;50.274;19.000;2022-07-25T14:17:32;1.73;;;1.63;;
64716;SDS011;51146;50.274;19.000;2022-07-25T14:19:59;2.33;;;1.77;;
64716;SDS011;51146;50.274;19.000;2022-07-25T14:22:26;4.25;;;1.63;;
64716;SDS011;51146;50.274;19.000;2022-07-25T14:24:53;1.83;;;1.42;;
64716;SDS011;51146;50.274;19.000;2022-07-25T14:27:20;3.17;;;2.00;;
64716;SDS011;51146;50.274;19.000;2022-07-25T14:29:47;2.65;;;1.60;;
64716;SDS011;51146;50.274;19.000;2022-07-25T14:32:14;1.48;;;1.38;;
64716;SDS011;51146;50.274;19.000;2022-07-25T14:34:41;1.52;;;1.42;;
64716;SDS011;51146;50.274;19.000;2022-07-25T14:37:08;1.85;;;1.60;;
64716;SDS011;51146;50.274;19.000;2022-07-25T14:39:35;3.73;;;1.50;;
64716;SDS011;51146;50.274;19.000;2022-07-25T14:42:02;3.90;;;1.50;;
64716;SDS011;51146;50.274;19.000;2022-07-25T14:44:31;1.63;;;1.40;;
64716;SDS011;51146;50.274;19.000;2022-07-25T14:46:58;2.45;;;1.58;;
64716;SDS011;51146;50.274;19.000;2022-07-25T14:49:26;1.63;;;1.52;;
64716;SDS011;51146;50.274;19.000;2022-07-25T14:51:54;3.28;;;1.67;;
64716;SDS011;51146;50.274;19.000;2022-07-25T14:54:21;3.40;;;1.85;;
64716;SDS011;51146;50.274;19.000;2022-07-25T14:56:47;3.53;;;1.70;;
64716;SDS011;51146;50.274;19.000;2022-07-25T14:59:15;2.47;;;1.73;;
64716;SDS011;51146;50.274;19.000;2022-07-25T15:01:42;2.97;;;1.50;;
64716;SDS011;51146;50.274;19.000;2022-07-25T15:04:09;2.15;;;1.60;;
64716;SDS011;51146;50.274;19.000;2022-07-25T15:06:36;2.08;;;1.75;;
64716;SDS011;51146;50.274;19.000;2022-07-25T15:09:03;2.47;;;1.50;;
64716;SDS011;51146;50.274;19.000;2022-07-25T15:11:31;2.40;;;1.52;;
64716;SDS011;51146;50.274;19.000;2022-07-25T15:13:57;1.77;;;1.67;;
64716;SDS011;51146;50.274;19.000;2022-07-25T15:16:24;3.25;;;1.65;;
64716;SDS011;51146;50.274;19.000;2022-07-25T15:18:51;1.88;;;1.50;;